createdAt,value
2016-02-27T00:00:53.828Z,0
2016-02-27T00:01:53.798Z,0
2016-02-27T00:02:53.863Z,0
2016-02-27T00:03:53.820Z,0
2016-02-27T00:04:53.822Z,0
2016-02-27T00:05:54.309Z,0
2016-02-27T00:06:53.749Z,0
2016-02-27T00:07:53.768Z,0
2016-02-27T00:08:53.771Z,0
2016-02-27T00:09:53.757Z,0
2016-02-27T00:10:53.745Z,0
2016-02-27T00:11:53.778Z,0
2016-02-27T00:12:53.718Z,0
2016-02-27T00:13:53.753Z,0
2016-02-27T00:14:53.709Z,0
2016-02-27T00:15:53.726Z,0
2016-02-27T00:16:53.698Z,0
2016-02-27T00:17:53.701Z,0
2016-02-27T00:18:53.735Z,0
2016-02-27T00:19:53.690Z,0
2016-02-27T00:20:53.693Z,0
2016-02-27T00:21:53.665Z,0
2016-02-27T00:22:53.652Z,0
2016-02-27T00:23:53.670Z,0
2016-02-27T00:24:53.625Z,0
2016-02-27T00:25:53.644Z,0
2016-02-27T00:26:53.663Z,0
2016-02-27T00:27:53.602Z,0
2016-02-27T00:28:53.605Z,0
2016-02-27T00:29:53.608Z,0
2016-02-27T00:30:53.641Z,0
2016-02-27T00:31:53.583Z,0
2016-02-27T00:32:53.600Z,0
2016-02-27T00:33:53.588Z,0
2016-02-27T00:34:53.575Z,0
2016-02-27T00:35:53.578Z,0
2016-02-27T00:36:53.565Z,0
2016-02-27T00:37:53.552Z,0
2016-02-27T00:38:53.570Z,0
2016-02-27T00:39:53.541Z,0
2016-02-27T00:40:53.576Z,0
2016-02-27T00:41:53.515Z,0
2016-02-27T00:42:53.518Z,0
2016-02-27T00:43:53.568Z,0
2016-02-27T00:44:53.523Z,0
2016-02-27T00:45:53.527Z,0
2016-02-27T00:46:53.529Z,0
2016-02-27T00:47:53.500Z,0
2016-02-27T00:48:53.473Z,0
2016-02-27T00:49:53.490Z,0
2016-02-27T00:50:53.477Z,0
2016-02-27T00:51:53.495Z,0
2016-02-27T00:52:53.451Z,0
2016-02-27T00:53:53.486Z,0
2016-02-27T00:54:53.456Z,0
2016-02-27T00:55:53.459Z,0
2016-02-27T00:56:53.415Z,0
2016-02-27T00:57:53.402Z,0
2016-02-27T00:58:53.405Z,0
2016-02-27T00:59:53.408Z,0
2016-02-27T01:00:53.410Z,0
2016-02-27T01:01:53.397Z,0
2016-02-27T01:02:53.400Z,0
2016-02-27T01:03:53.372Z,0
2016-02-27T01:04:53.390Z,0
2016-02-27T01:05:53.361Z,0
2016-02-27T01:06:53.380Z,0
2016-02-27T01:07:53.352Z,0
2016-02-27T01:08:53.369Z,0
2016-02-27T01:09:53.357Z,0
2016-02-27T01:10:53.360Z,0
2016-02-27T01:11:53.315Z,0
2016-02-27T01:12:53.318Z,0
2016-02-27T01:13:53.335Z,0
2016-02-27T01:14:53.370Z,0
2016-02-27T01:15:53.295Z,0
2016-02-27T01:16:53.329Z,0
2016-02-27T01:17:53.284Z,0
2016-02-27T01:18:53.302Z,0
2016-02-27T01:19:53.259Z,0
2016-02-27T01:20:53.277Z,0
2016-02-27T01:21:53.264Z,0
2016-02-27T01:22:53.251Z,0
2016-02-27T01:23:53.254Z,0
2016-02-27T01:24:53.225Z,0
2016-02-27T01:25:53.228Z,0
2016-02-27T01:26:53.214Z,0
2016-02-27T01:27:53.202Z,0
2016-02-27T01:28:53.219Z,0
2016-02-27T01:29:53.191Z,0
2016-02-27T01:30:53.179Z,0
2016-02-27T01:31:53.166Z,0
2016-02-27T01:32:53.168Z,0
2016-02-27T01:33:53.172Z,0
2016-02-27T01:34:53.174Z,0
2016-02-27T01:35:53.177Z,0
2016-02-27T01:36:53.132Z,0
2016-02-27T01:37:53.135Z,0
2016-02-27T01:38:53.138Z,0
2016-02-27T01:39:53.124Z,0
2016-02-27T01:40:53.112Z,0
2016-02-27T01:41:53.130Z,0
2016-02-27T01:42:53.117Z,0
2016-02-27T01:43:53.120Z,0
2016-02-27T01:44:53.091Z,0
2016-02-27T01:45:53.079Z,0
2016-02-27T01:46:53.096Z,0
2016-02-27T01:47:53.052Z,0
2016-02-27T01:48:53.071Z,0
2016-02-27T01:49:53.042Z,0
2016-02-27T01:50:53.029Z,0
2016-02-27T01:51:53.031Z,0
2016-02-27T01:52:53.034Z,0
2016-02-27T01:53:52.865Z,0
2016-02-27T01:54:53.024Z,0
2016-02-27T01:55:52.996Z,0
2016-02-27T01:56:52.998Z,0
2016-02-27T01:57:52.986Z,0
2016-02-27T01:58:53.020Z,0
2016-02-27T01:59:52.225Z,0
2016-02-27T02:00:52.978Z,0
2016-02-27T02:01:52.964Z,0
2016-02-27T02:02:52.999Z,0
2016-02-27T02:03:52.955Z,0
2016-02-27T02:04:52.942Z,0
2016-02-27T02:05:52.961Z,0
2016-02-27T02:06:53.885Z,0
2016-02-27T02:07:52.935Z,0
2016-02-27T02:08:52.905Z,0
2016-02-27T02:09:52.893Z,0
2016-02-27T02:10:52.896Z,0
2016-02-27T02:11:52.882Z,0
2016-02-27T02:12:52.901Z,0
2016-02-27T02:13:52.918Z,0
2016-02-27T02:14:52.875Z,0
2016-02-27T02:15:52.863Z,0
2016-02-27T02:16:52.865Z,0
2016-02-27T02:17:52.852Z,0
2016-02-27T02:18:52.839Z,0
2016-02-27T02:19:52.842Z,0
2016-02-27T02:20:52.828Z,0
2016-02-27T02:21:52.815Z,0
2016-02-27T02:22:52.819Z,0
2016-02-27T02:23:52.821Z,0
2016-02-27T02:24:52.793Z,0
2016-02-27T02:25:52.795Z,0
2016-02-27T02:26:52.798Z,0
2016-02-27T02:27:52.785Z,0
2016-02-27T02:28:52.756Z,0
2016-02-27T02:29:52.759Z,0
2016-02-27T02:30:52.762Z,0
2016-02-27T02:31:52.749Z,0
2016-02-27T02:32:52.783Z,0
2016-02-27T02:33:52.739Z,0
2016-02-27T02:34:52.726Z,0
2016-02-27T02:35:52.728Z,0
2016-02-27T02:36:52.731Z,0
2016-02-27T02:37:52.702Z,0
2016-02-27T02:38:52.705Z,0
2016-02-27T02:39:52.707Z,0
2016-02-27T02:40:52.694Z,0
2016-02-27T02:41:52.683Z,0
2016-02-27T02:42:52.544Z,0
2016-02-27T02:43:52.672Z,0
2016-02-27T02:44:52.659Z,0
2016-02-27T02:45:52.677Z,0
2016-02-27T02:46:52.648Z,0
2016-02-27T02:47:52.651Z,0
2016-02-27T02:48:52.638Z,0
2016-02-27T02:49:52.657Z,0
2016-02-27T02:50:52.629Z,0
2016-02-27T02:51:52.599Z,0
2016-02-27T02:52:52.602Z,0
2016-02-27T02:53:52.605Z,0
2016-02-27T02:54:52.639Z,0
2016-02-27T02:55:52.610Z,0
2016-02-27T02:56:52.581Z,0
2016-02-27T02:57:52.615Z,0
2016-02-27T02:58:52.587Z,0
2016-02-27T02:59:52.574Z,0
2016-02-27T03:00:52.546Z,0
2016-02-27T03:01:52.548Z,0
2016-02-27T03:02:52.536Z,0
2016-02-27T03:03:52.522Z,0
2016-02-27T03:04:52.353Z,0
2016-02-27T03:05:52.356Z,0
2016-02-27T03:06:52.499Z,0
2016-02-27T03:07:52.533Z,0
2016-02-27T03:08:52.520Z,0
2016-02-27T03:09:52.492Z,0
2016-02-27T03:10:52.479Z,0
2016-02-27T03:11:52.466Z,0
2016-02-27T03:12:52.469Z,0
2016-02-27T03:13:52.455Z,0
2016-02-27T03:14:52.458Z,0
2016-02-27T03:15:52.445Z,0
2016-02-27T03:16:52.417Z,0
2016-02-27T03:17:52.466Z,0
2016-02-27T03:18:52.407Z,0
2016-02-27T03:19:52.440Z,0
2016-02-27T03:20:52.396Z,0
2016-02-27T03:21:52.399Z,0
2016-02-27T03:22:52.386Z,0
2016-02-27T03:23:52.373Z,0
2016-02-27T03:24:52.360Z,0
2016-02-27T03:25:52.363Z,0
2016-02-27T03:26:52.397Z,0
2016-02-27T03:27:52.337Z,0
2016-02-27T03:28:52.340Z,0
2016-02-27T03:29:52.342Z,0
2016-02-27T03:30:52.329Z,0
2016-02-27T03:31:52.379Z,0
2016-02-27T03:32:52.319Z,0
2016-02-27T03:33:52.322Z,0
2016-02-27T03:34:52.324Z,0
2016-02-27T03:35:52.281Z,0
2016-02-27T03:36:52.330Z,0
2016-02-27T03:37:52.270Z,0
2016-02-27T03:38:52.320Z,0
2016-02-27T03:39:52.447Z,0
2016-02-27T03:40:52.247Z,0
2016-02-27T03:41:52.249Z,0
2016-02-27T03:42:52.315Z,0
2016-02-27T03:43:52.224Z,0
2016-02-27T03:44:52.242Z,0
2016-02-27T03:45:52.214Z,0
2016-02-27T03:46:52.201Z,0
2016-02-27T03:47:52.219Z,0
2016-02-27T03:48:52.207Z,0
2016-02-27T03:49:52.209Z,0
2016-02-27T03:50:52.148Z,0
2016-02-27T03:51:52.152Z,0
2016-02-27T03:52:52.154Z,0
2016-02-27T03:53:52.188Z,0
2016-02-27T03:54:52.144Z,0
2016-02-27T03:55:52.146Z,0
2016-02-27T03:56:52.118Z,0
2016-02-27T03:57:52.120Z,0
2016-02-27T03:58:52.092Z,0
2016-02-27T03:59:52.095Z,0
2016-02-27T04:00:52.098Z,0
2016-02-27T04:01:52.085Z,0
2016-02-27T04:02:52.103Z,0
2016-02-27T04:03:52.075Z,0
2016-02-27T04:04:52.061Z,0
2016-02-27T04:05:52.080Z,0
2016-02-27T04:06:52.050Z,0
2016-02-27T04:07:52.039Z,0
2016-02-27T04:08:52.026Z,0
2016-02-27T04:09:52.028Z,0
2016-02-27T04:10:52.016Z,0
2016-02-27T04:11:52.019Z,0
2016-02-27T04:12:52.021Z,0
2016-02-27T04:13:52.008Z,0
2016-02-27T04:14:51.994Z,0
2016-02-27T04:15:51.966Z,0
2016-02-27T04:16:51.984Z,0
2016-02-27T04:17:51.971Z,0
2016-02-27T04:18:51.975Z,0
2016-02-27T04:19:51.946Z,0
2016-02-27T04:20:51.949Z,0
2016-02-27T04:21:51.935Z,0
2016-02-27T04:22:51.923Z,0
2016-02-27T04:23:51.925Z,0
2016-02-27T04:24:51.944Z,0
2016-02-27T04:25:51.915Z,0
2016-02-27T04:26:51.902Z,0
2016-02-27T04:27:51.905Z,0
2016-02-27T04:28:51.876Z,0
2016-02-27T04:29:51.867Z,0
2016-02-27T04:30:51.888Z,0
2016-02-27T04:31:51.846Z,0
2016-02-27T04:32:51.852Z,0
2016-02-27T04:33:51.778Z,0
2016-02-27T04:34:51.761Z,0
2016-02-27T04:35:51.758Z,0
2016-02-27T04:36:51.756Z,0
2016-02-27T04:37:51.738Z,0
2016-02-27T04:38:51.704Z,0
2016-02-27T04:39:51.705Z,0
2016-02-27T04:40:51.706Z,0
2016-02-27T04:41:51.691Z,0
2016-02-27T04:42:51.677Z,0
2016-02-27T04:43:51.663Z,0
2016-02-27T04:44:51.665Z,0
2016-02-27T04:45:51.650Z,0
2016-02-27T04:46:51.637Z,0
2016-02-27T04:47:51.623Z,0
2016-02-27T04:48:51.625Z,0
2016-02-27T04:49:51.643Z,0
2016-02-27T04:50:51.614Z,0
2016-02-27T04:51:51.616Z,0
2016-02-27T04:52:51.588Z,0
2016-02-27T04:53:51.574Z,0
2016-02-27T04:54:51.561Z,0
2016-02-27T04:55:51.579Z,0
2016-02-27T04:56:51.567Z,0
2016-02-27T04:57:51.522Z,0
2016-02-27T04:58:51.541Z,0
2016-02-27T04:59:51.543Z,0
2016-02-27T05:00:51.530Z,0
2016-02-27T05:01:51.518Z,0
2016-02-27T05:02:51.520Z,0
2016-02-27T05:03:51.523Z,0
2016-02-27T05:04:51.510Z,0
2016-02-27T05:05:51.513Z,0
2016-02-27T05:06:51.483Z,0
2016-02-27T05:07:51.471Z,0
2016-02-27T05:08:51.333Z,0
2016-02-27T05:09:51.446Z,0
2016-02-27T05:10:51.449Z,0
2016-02-27T05:11:51.435Z,0
2016-02-27T05:12:51.438Z,0
2016-02-27T05:13:51.424Z,0
2016-02-27T05:14:51.412Z,0
2016-02-27T05:15:51.446Z,0
2016-02-27T05:16:51.401Z,0
2016-02-27T05:17:51.389Z,0
2016-02-27T05:18:51.391Z,0
2016-02-27T05:19:51.410Z,0
2016-02-27T05:20:51.365Z,0
2016-02-27T05:21:51.399Z,0
2016-02-27T05:22:51.355Z,0
2016-02-27T05:23:51.358Z,0
2016-02-27T05:24:51.361Z,0
2016-02-27T05:25:51.348Z,0
2016-02-27T05:26:51.351Z,0
2016-02-27T05:27:51.337Z,0
2016-02-27T05:28:51.325Z,0
2016-02-27T05:29:51.343Z,0
2016-02-27T05:30:51.314Z,0
2016-02-27T05:31:51.286Z,0
2016-02-27T05:32:51.272Z,0
2016-02-27T05:33:51.261Z,0
2016-02-27T05:34:51.247Z,0
2016-02-27T05:35:51.266Z,0
2016-02-27T05:36:51.236Z,0
2016-02-27T05:37:51.255Z,0
2016-02-27T05:38:51.241Z,0
2016-02-27T05:39:51.229Z,0
2016-02-27T05:40:51.216Z,0
2016-02-27T05:41:51.203Z,0
2016-02-27T05:42:51.222Z,0
2016-02-27T05:43:51.177Z,0
2016-02-27T05:44:51.180Z,0
2016-02-27T05:45:51.213Z,0
2016-02-27T05:46:51.170Z,0
2016-02-27T05:47:51.141Z,0
2016-02-27T05:48:51.143Z,0
2016-02-27T05:49:51.147Z,0
2016-02-27T05:50:51.149Z,0
2016-02-27T05:51:51.137Z,0
2016-02-27T05:52:51.123Z,0
2016-02-27T05:53:51.110Z,0
2016-02-27T05:54:51.145Z,0
2016-02-27T05:55:51.319Z,0
2016-02-27T05:56:51.118Z,0
2016-02-27T05:57:51.059Z,0
2016-02-27T05:58:51.062Z,0
2016-02-27T05:59:51.064Z,0
2016-02-27T06:00:51.129Z,0
2016-02-27T06:01:51.086Z,0
2016-02-27T06:02:51.056Z,0
2016-02-27T06:03:51.028Z,0
2016-02-27T06:04:51.015Z,0
2016-02-27T06:05:51.252Z,0
2016-02-27T06:06:51.005Z,0
2016-02-27T06:07:51.007Z,0
2016-02-27T06:08:50.980Z,5
2016-02-27T06:09:50.982Z,5
2016-02-27T06:10:50.828Z,5
2016-02-27T06:11:50.955Z,5
2016-02-27T06:12:50.943Z,5
2016-02-27T06:13:50.961Z,5
2016-02-27T06:14:50.948Z,5
2016-02-27T06:15:50.935Z,5
2016-02-27T06:16:50.954Z,10
2016-02-27T06:17:50.988Z,10
2016-02-27T06:18:50.912Z,10
2016-02-27T06:19:50.881Z,10
2016-02-27T06:20:50.899Z,10
2016-02-27T06:21:50.902Z,15
2016-02-27T06:22:53.892Z,15
2016-02-27T06:23:50.923Z,15
2016-02-27T06:24:50.862Z,15
2016-02-27T06:25:50.851Z,15
2016-02-27T06:26:50.837Z,15
2016-02-27T06:27:50.824Z,20
2016-02-27T06:28:50.812Z,20
2016-02-27T06:29:50.814Z,20
2016-02-27T06:30:50.832Z,20
2016-02-27T06:31:50.788Z,20
2016-02-27T06:32:50.791Z,25
2016-02-27T06:33:50.778Z,25
2016-02-27T06:34:50.750Z,25
2016-02-27T06:35:50.767Z,25
2016-02-27T06:36:50.739Z,30
2016-02-27T06:37:50.726Z,30
2016-02-27T06:38:50.728Z,30
2016-02-27T06:39:50.731Z,30
2016-02-27T06:40:50.765Z,30
2016-02-27T06:41:50.722Z,35
2016-02-27T06:42:50.708Z,35
2016-02-27T06:43:50.695Z,35
2016-02-27T06:44:50.666Z,35
2016-02-27T06:45:50.701Z,35
2016-02-27T06:46:50.657Z,40
2016-02-27T06:47:50.674Z,40
2016-02-27T06:48:50.646Z,40
2016-02-27T06:49:50.633Z,45
2016-02-27T06:50:50.652Z,45
2016-02-27T06:51:50.608Z,45
2016-02-27T06:52:50.641Z,45
2016-02-27T06:53:50.660Z,50
2016-02-27T06:54:50.616Z,50
2016-02-27T06:55:50.603Z,50
2016-02-27T06:56:50.589Z,55
2016-02-27T06:57:50.623Z,55
2016-02-27T06:58:50.564Z,55
2016-02-27T06:59:50.566Z,55
2016-02-27T07:00:50.570Z,60
2016-02-27T07:01:50.853Z,60
2016-02-27T07:02:50.543Z,60
2016-02-27T07:03:50.546Z,65
2016-02-27T07:04:50.533Z,65
2016-02-27T07:05:50.520Z,65
2016-02-27T07:06:50.522Z,65
2016-02-27T07:07:50.510Z,70
2016-02-27T07:08:50.514Z,70
2016-02-27T07:09:50.484Z,70
2016-02-27T07:10:50.472Z,75
2016-02-27T07:11:50.677Z,75
2016-02-27T07:12:50.461Z,75
2016-02-27T07:13:50.479Z,80
2016-02-27T07:14:50.466Z,80
2016-02-27T07:15:50.438Z,80
2016-02-27T07:16:50.425Z,85
2016-02-27T07:17:50.428Z,85
2016-02-27T07:18:50.415Z,85
2016-02-27T07:19:50.433Z,90
2016-02-27T07:20:50.404Z,90
2016-02-27T07:21:50.391Z,90
2016-02-27T07:22:50.065Z,90
2016-02-27T07:23:50.396Z,90
2016-02-27T07:24:50.369Z,90
2016-02-27T07:25:50.355Z,90
2016-02-27T07:26:50.358Z,95
2016-02-27T07:27:50.360Z,95
2016-02-27T07:28:50.363Z,95
2016-02-27T07:29:50.334Z,95
2016-02-27T07:30:50.353Z,100
2016-02-27T07:31:50.340Z,100
2016-02-27T07:32:50.328Z,100
2016-02-27T07:33:50.315Z,110
2016-02-27T07:34:50.301Z,115
2016-02-27T07:35:50.304Z,120
2016-02-27T07:36:50.291Z,120
2016-02-27T07:37:50.278Z,125
2016-02-27T07:38:50.280Z,130
2016-02-27T07:39:50.267Z,130
2016-02-27T07:40:50.271Z,135
2016-02-27T07:41:50.273Z,140
2016-02-27T07:42:50.261Z,145
2016-02-27T07:43:50.263Z,135
2016-02-27T07:44:50.266Z,135
2016-02-27T07:45:50.268Z,135
2016-02-27T07:46:50.271Z,135
2016-02-27T07:47:50.243Z,140
2016-02-27T07:48:50.261Z,140
2016-02-27T07:49:50.280Z,145
2016-02-27T07:50:50.235Z,145
2016-02-27T07:51:50.238Z,145
2016-02-27T07:52:50.225Z,145
2016-02-27T07:53:50.227Z,145
2016-02-27T07:54:50.230Z,150
2016-02-27T07:55:50.232Z,150
2016-02-27T07:56:50.079Z,145
2016-02-27T07:57:50.238Z,150
2016-02-27T07:58:50.068Z,150
2016-02-27T07:59:50.243Z,155
2016-02-27T08:00:50.215Z,150
2016-02-27T08:01:50.249Z,150
2016-02-27T08:02:50.236Z,155
2016-02-27T08:03:50.254Z,150
2016-02-27T08:04:50.242Z,150
2016-02-27T08:05:50.292Z,155
2016-02-27T08:06:50.325Z,155
2016-02-27T08:07:50.250Z,155
2016-02-27T08:08:50.253Z,155
2016-02-27T08:09:50.098Z,155
2016-02-27T08:10:50.242Z,155
2016-02-27T08:11:50.260Z,155
2016-02-27T08:12:50.247Z,155
2016-02-27T08:13:50.250Z,155
2016-02-27T08:14:50.252Z,155
2016-02-27T08:15:50.255Z,155
2016-02-27T08:16:50.305Z,155
2016-02-27T08:17:50.245Z,165
2016-02-27T08:18:50.263Z,165
2016-02-27T08:19:50.250Z,165
2016-02-27T08:20:50.238Z,165
2016-02-27T08:21:50.241Z,165
2016-02-27T08:22:50.103Z,165
2016-02-27T08:23:50.261Z,165
2016-02-27T08:24:50.248Z,165
2016-02-27T08:25:50.267Z,165
2016-02-27T08:26:50.254Z,165
2016-02-27T08:27:50.272Z,165
2016-02-27T08:28:50.290Z,165
2016-02-27T08:29:50.262Z,165
2016-02-27T08:30:50.279Z,165
2016-02-27T08:31:50.268Z,165
2016-02-27T08:32:50.270Z,160
2016-02-27T08:33:50.273Z,160
2016-02-27T08:34:50.275Z,160
2016-02-27T08:35:50.278Z,165
2016-02-27T08:36:50.281Z,170
2016-02-27T08:37:50.284Z,170
2016-02-27T08:38:50.287Z,170
2016-02-27T08:39:50.304Z,170
2016-02-27T08:40:50.292Z,170
2016-02-27T08:41:50.264Z,170
2016-02-27T08:42:50.328Z,165
2016-02-27T08:43:50.269Z,170
2016-02-27T08:44:50.272Z,170
2016-02-27T08:45:50.258Z,175
2016-02-27T08:46:50.245Z,175
2016-02-27T08:47:50.263Z,175
2016-02-27T08:48:50.282Z,175
2016-02-27T08:49:50.268Z,180
2016-02-27T08:50:50.272Z,175
2016-02-27T08:51:50.258Z,180
2016-02-27T08:52:50.339Z,180
2016-02-27T08:53:50.342Z,180
2016-02-27T08:54:50.266Z,180
2016-02-27T08:55:50.238Z,180
2016-02-27T08:56:50.241Z,175
2016-02-27T08:57:50.227Z,175
2016-02-27T08:58:50.230Z,180
2016-02-27T08:59:50.232Z,180
2016-02-27T09:00:50.235Z,185
2016-02-27T09:01:50.238Z,185
2016-02-27T09:02:50.070Z,185
2016-02-27T09:03:50.229Z,185
2016-02-27T09:04:50.231Z,185
2016-02-27T09:05:50.078Z,185
2016-02-27T09:06:50.205Z,185
2016-02-27T09:07:50.192Z,185
2016-02-27T09:08:50.226Z,180
2016-02-27T09:09:50.197Z,180
2016-02-27T09:10:50.184Z,180
2016-02-27T09:11:50.219Z,175
2016-02-27T09:12:50.190Z,180
2016-02-27T09:13:50.178Z,180
2016-02-27T09:14:50.195Z,180
2016-02-27T09:15:50.026Z,180
2016-02-27T09:16:50.170Z,185
2016-02-27T09:17:50.156Z,185
2016-02-27T09:18:50.159Z,190
2016-02-27T09:19:50.177Z,190
2016-02-27T09:20:50.164Z,195
2016-02-27T09:21:50.152Z,190
2016-02-27T09:22:50.138Z,190
2016-02-27T09:23:50.141Z,195
2016-02-27T09:24:50.129Z,195
2016-02-27T09:25:50.131Z,195
2016-02-27T09:26:50.150Z,195
2016-02-27T09:27:50.137Z,195
2016-02-27T09:28:50.123Z,195
2016-02-27T09:29:50.127Z,195
2016-02-27T09:30:50.129Z,195
2016-02-27T09:31:50.179Z,195
2016-02-27T09:32:50.134Z,195
2016-02-27T09:33:50.137Z,195
2016-02-27T09:34:50.170Z,195
2016-02-27T09:35:50.189Z,195
2016-02-27T09:36:50.114Z,195
2016-02-27T09:37:50.148Z,195
2016-02-27T09:38:50.088Z,195
2016-02-27T09:39:50.122Z,195
2016-02-27T09:40:50.078Z,195
2016-02-27T09:41:50.065Z,195
2016-02-27T09:42:50.067Z,200
2016-02-27T09:43:50.070Z,195
2016-02-27T09:44:50.073Z,195
2016-02-27T09:45:50.076Z,195
2016-02-27T09:46:50.078Z,200
2016-02-27T09:47:50.081Z,190
2016-02-27T09:48:50.099Z,200
2016-02-27T09:49:50.071Z,195
2016-02-27T09:50:50.089Z,195
2016-02-27T09:51:50.044Z,195
2016-02-27T09:52:50.047Z,195
2016-02-27T09:53:50.049Z,195
2016-02-27T09:54:50.053Z,200
2016-02-27T09:55:50.025Z,200
2016-02-27T09:56:50.043Z,200
2016-02-27T09:57:50.030Z,200
2016-02-27T09:58:50.033Z,200
2016-02-27T09:59:50.019Z,200
2016-02-27T10:00:50.022Z,200
2016-02-27T10:01:50.009Z,200
2016-02-27T10:02:50.059Z,200
2016-02-27T10:03:50.015Z,195
2016-02-27T10:04:50.017Z,195
2016-02-27T10:05:50.490Z,205
2016-02-27T10:06:49.992Z,210
2016-02-27T10:07:49.994Z,205
2016-02-27T10:08:50.029Z,205
2016-02-27T10:09:50.000Z,200
2016-02-27T10:10:50.003Z,195
2016-02-27T10:11:49.989Z,200
2016-02-27T10:12:49.992Z,200
2016-02-27T10:13:49.995Z,210
2016-02-27T10:14:49.997Z,205
2016-02-27T10:15:49.969Z,205
2016-02-27T10:16:50.284Z,200
2016-02-27T10:17:50.037Z,200
2016-02-27T10:18:49.961Z,200
2016-02-27T10:19:49.964Z,200
2016-02-27T10:20:49.936Z,200
2016-02-27T10:21:49.969Z,200
2016-02-27T10:22:49.956Z,200
2016-02-27T10:23:49.958Z,200
2016-02-27T10:24:49.961Z,200
2016-02-27T10:25:49.964Z,200
2016-02-27T10:26:49.967Z,200
2016-02-27T10:27:49.969Z,200
2016-02-27T10:28:49.926Z,195
2016-02-27T10:29:49.929Z,190
2016-02-27T10:30:49.946Z,190
2016-02-27T10:31:49.934Z,190
2016-02-27T10:32:49.937Z,190
2016-02-27T10:33:49.939Z,190
2016-02-27T10:34:49.926Z,190
2016-02-27T10:35:49.929Z,190
2016-02-27T10:36:49.931Z,195
2016-02-27T10:37:49.918Z,190
2016-02-27T10:38:49.921Z,195
2016-02-27T10:39:49.923Z,195
2016-02-27T10:40:49.911Z,195
2016-02-27T10:41:49.929Z,195
2016-02-27T10:42:49.901Z,190
2016-02-27T10:43:49.903Z,190
2016-02-27T10:44:49.937Z,190
2016-02-27T10:45:49.909Z,190
2016-02-27T10:46:49.880Z,195
2016-02-27T10:47:49.883Z,195
2016-02-27T10:48:49.901Z,195
2016-02-27T10:49:49.873Z,200
2016-02-27T10:50:49.891Z,195
2016-02-27T10:51:49.878Z,190
2016-02-27T10:52:49.880Z,195
2016-02-27T10:53:49.868Z,195
2016-02-27T10:54:49.886Z,190
2016-02-27T10:55:49.874Z,195
2016-02-27T10:56:49.955Z,195
2016-02-27T10:57:49.879Z,195
2016-02-27T10:58:49.928Z,195
2016-02-27T10:59:49.931Z,195
2016-02-27T11:00:49.933Z,190
2016-02-27T11:01:49.905Z,195
2016-02-27T11:02:49.860Z,190
2016-02-27T11:03:49.879Z,190
2016-02-27T11:04:49.866Z,190
2016-02-27T11:05:49.884Z,190
2016-02-27T11:06:49.856Z,195
2016-02-27T11:07:49.859Z,195
2016-02-27T11:08:49.893Z,195
2016-02-27T11:09:49.848Z,195
2016-02-27T11:10:49.851Z,200
2016-02-27T11:11:49.837Z,200
2016-02-27T11:12:49.903Z,200
2016-02-27T11:13:49.828Z,200
2016-02-27T11:14:49.831Z,200
2016-02-27T11:15:49.833Z,200
2016-02-27T11:16:49.851Z,200
2016-02-27T11:17:49.839Z,200
2016-02-27T11:18:49.888Z,200
2016-02-27T11:19:49.828Z,195
2016-02-27T11:20:49.847Z,195
2016-02-27T11:21:49.819Z,195
2016-02-27T11:22:49.837Z,195
2016-02-27T11:23:49.824Z,195
2016-02-27T11:24:49.858Z,195
2016-02-27T11:25:49.642Z,195
2016-02-27T11:26:49.800Z,195
2016-02-27T11:27:49.819Z,195
2016-02-27T11:28:49.805Z,200
2016-02-27T11:29:49.809Z,195
2016-02-27T11:30:49.811Z,185
2016-02-27T11:31:49.814Z,185
2016-02-27T11:32:49.817Z,190
2016-02-27T11:33:49.850Z,190
2016-02-27T11:34:49.806Z,190
2016-02-27T11:35:49.809Z,190
2016-02-27T11:36:49.780Z,190
2016-02-27T11:37:49.815Z,185
2016-02-27T11:38:49.802Z,185
2016-02-27T11:39:49.788Z,185
2016-02-27T11:40:49.791Z,185
2016-02-27T11:41:49.793Z,190
2016-02-27T11:42:49.781Z,185
2016-02-27T11:43:49.846Z,185
2016-02-27T11:44:49.770Z,190
2016-02-27T11:45:49.805Z,190
2016-02-27T11:46:49.776Z,195
2016-02-27T11:47:49.764Z,195
2016-02-27T11:48:49.781Z,195
2016-02-27T11:49:49.784Z,190
2016-02-27T11:50:49.771Z,185
2016-02-27T11:51:49.774Z,185
2016-02-27T11:52:49.777Z,195
2016-02-27T11:53:49.764Z,195
2016-02-27T11:54:49.783Z,190
2016-02-27T11:55:49.769Z,195
2016-02-27T11:56:49.834Z,195
2016-02-27T11:57:49.758Z,195
2016-02-27T11:58:49.761Z,195
2016-02-27T11:59:49.749Z,195
2016-02-27T12:00:49.782Z,195
2016-02-27T12:01:49.755Z,195
2016-02-27T12:02:49.757Z,190
2016-02-27T12:03:49.807Z,190
2016-02-27T12:04:49.746Z,190
2016-02-27T12:05:49.765Z,195
2016-02-27T12:06:49.783Z,190
2016-02-27T12:07:49.754Z,190
2016-02-27T12:08:49.788Z,190
2016-02-27T12:09:49.729Z,190
2016-02-27T12:10:49.747Z,190
2016-02-27T12:11:49.734Z,190
2016-02-27T12:12:49.596Z,190
2016-02-27T12:13:49.739Z,190
2016-02-27T12:14:49.757Z,185
2016-02-27T12:15:49.745Z,190
2016-02-27T12:16:49.747Z,190
2016-02-27T12:17:49.720Z,185
2016-02-27T12:18:49.768Z,185
2016-02-27T12:19:49.756Z,185
2016-02-27T12:20:49.742Z,185
2016-02-27T12:21:49.761Z,185
2016-02-27T12:22:49.717Z,185
2016-02-27T12:23:49.720Z,185
2016-02-27T12:24:49.738Z,185
2016-02-27T12:25:49.741Z,185
2016-02-27T12:26:49.744Z,185
2016-02-27T12:27:49.761Z,185
2016-02-27T12:28:50.045Z,185
2016-02-27T12:29:49.752Z,185
2016-02-27T12:30:49.738Z,185
2016-02-27T12:31:49.741Z,185
2016-02-27T12:32:49.744Z,185
2016-02-27T12:33:49.700Z,185
2016-02-27T12:34:49.749Z,185
2016-02-27T12:35:49.768Z,185
2016-02-27T12:36:49.739Z,185
2016-02-27T12:37:49.710Z,185
2016-02-27T12:38:49.713Z,185
2016-02-27T12:39:49.732Z,185
2016-02-27T12:40:52.749Z,185
2016-02-27T12:41:49.721Z,185
2016-02-27T12:42:49.755Z,185
2016-02-27T12:43:49.710Z,185
2016-02-27T12:44:49.729Z,185
2016-02-27T12:45:49.716Z,185
2016-02-27T12:46:49.750Z,180
2016-02-27T12:47:49.721Z,180
2016-02-27T12:48:49.771Z,180
2016-02-27T12:49:49.898Z,180
2016-02-27T12:50:49.714Z,180
2016-02-27T12:51:49.732Z,180
2016-02-27T12:52:49.720Z,180
2016-02-27T12:53:49.722Z,180
2016-02-27T12:54:49.709Z,180
2016-02-27T12:55:49.711Z,180
2016-02-27T12:56:49.699Z,180
2016-02-27T12:57:49.717Z,180
2016-02-27T12:58:49.720Z,180
2016-02-27T12:59:49.707Z,180
2016-02-27T13:00:49.725Z,175
2016-02-27T13:01:49.713Z,175
2016-02-27T13:02:49.761Z,175
2016-02-27T13:03:49.686Z,175
2016-02-27T13:04:49.704Z,175
2016-02-27T13:05:49.692Z,175
2016-02-27T13:06:49.710Z,175
2016-02-27T13:07:49.729Z,175
2016-02-27T13:08:49.732Z,175
2016-02-27T13:09:49.734Z,175
2016-02-27T13:10:49.565Z,175
2016-02-27T13:11:49.723Z,175
2016-02-27T13:12:49.695Z,175
2016-02-27T13:13:49.698Z,170
2016-02-27T13:14:49.701Z,170
2016-02-27T13:15:49.704Z,170
2016-02-27T13:16:49.831Z,170
2016-02-27T13:17:49.739Z,170
2016-02-27T13:18:49.695Z,170
2016-02-27T13:19:49.698Z,170
2016-02-27T13:20:49.685Z,170
2016-02-27T13:21:49.688Z,170
2016-02-27T13:22:49.722Z,170
2016-02-27T13:23:49.693Z,170
2016-02-27T13:24:49.696Z,170
2016-02-27T13:25:49.714Z,165
2016-02-27T13:26:49.733Z,165
2016-02-27T13:27:49.689Z,165
2016-02-27T13:28:49.723Z,165
2016-02-27T13:29:49.725Z,165
2016-02-27T13:30:49.681Z,165
2016-02-27T13:31:49.699Z,165
2016-02-27T13:32:49.702Z,165
2016-02-27T13:33:49.766Z,165
2016-02-27T13:34:49.785Z,165
2016-02-27T13:35:49.880Z,165
2016-02-27T13:36:49.697Z,165
2016-02-27T13:37:49.763Z,165
2016-02-27T13:38:49.736Z,165
2016-02-27T13:39:49.678Z,165
2016-02-27T13:40:49.716Z,160
2016-02-27T13:41:49.635Z,160
2016-02-27T13:42:49.649Z,160
2016-02-27T13:43:49.616Z,160
2016-02-27T13:44:49.644Z,160
2016-02-27T13:45:50.126Z,160
2016-02-27T13:46:49.612Z,160
2016-02-27T13:47:49.614Z,160
2016-02-27T13:48:49.645Z,160
2016-02-27T13:49:49.599Z,160
2016-02-27T13:50:49.616Z,160
2016-02-27T13:51:49.618Z,160
2016-02-27T13:52:49.619Z,155
2016-02-27T13:53:49.589Z,155
2016-02-27T13:54:49.607Z,155
2016-02-27T13:55:49.782Z,155
2016-02-27T13:56:50.112Z,155
2016-02-27T13:57:49.974Z,155
2016-02-27T13:58:50.274Z,155
2016-02-27T13:59:50.042Z,155
2016-02-27T14:00:50.357Z,155
2016-02-27T14:01:50.125Z,155
2016-02-27T14:02:50.035Z,155
2016-02-27T14:03:49.756Z,155
2016-02-27T14:04:49.884Z,155
2016-02-27T14:05:50.245Z,150
2016-02-27T14:06:50.342Z,150
2016-02-27T14:07:50.001Z,150
2016-02-27T14:08:49.878Z,150
2016-02-27T14:09:49.913Z,150
2016-02-27T14:10:49.774Z,150
2016-02-27T14:11:49.856Z,150
2016-02-27T14:12:49.749Z,150
2016-02-27T14:13:49.783Z,150
2016-02-27T14:14:49.754Z,150